Time;durP1;ratioP1;P1;durP2;ratioP2;P2;SDS_P1;SDS_P2;PMS_P1;PMS_P2;Temp;Humidity;BMP_temperature;BMP_pressure;BME280_temperature;BME280_humidity;BME280_pressure;Samples;Min_cycle;Max_cycle;Signal;HPM_P1;HPM_P2
2023/06/22 00:01:50;;;;;;;7.47;5.00;;;25.50;95.70;;;;;;10132760;28;20024;-59
2023/06/22 00:06:41;;;;;;;6.80;5.10;;;25.30;96.10;;;;;;10137285;28;20032;-61
2023/06/22 00:11:33;;;;;;;7.82;4.90;;;25.40;96.20;;;;;;10132452;28;20375;-60
2023/06/22 00:16:23;;;;;;;7.53;5.00;;;25.30;96.30;;;;;;10127297;28;20040;-59
2023/06/22 00:21:14;;;;;;;11.68;5.50;;;25.20;96.70;;;;;;10113611;28;20017;-61
2023/06/22 00:26:05;;;;;;;7.60;4.88;;;25.10;96.90;;;;;;10115822;28;20448;-61
2023/06/22 00:30:55;;;;;;;11.38;5.25;;;25.20;97.20;;;;;;10117570;28;20029;-59
2023/06/22 00:35:46;;;;;;;9.10;5.50;;;25.00;97.70;;;;;;10114891;28;20172;-59
2023/06/22 00:40:37;;;;;;;8.57;4.97;;;25.00;98.20;;;;;;10121083;28;20171;-59
2023/06/22 00:45:28;;;;;;;6.97;4.85;;;25.00;97.90;;;;;;10128646;28;20039;-59
2023/06/22 00:50:22;;;;;;;9.27;5.43;;;25.10;98.20;;;;;;10136358;28;20032;-59
2023/06/22 00:55:14;;;;;;;8.52;4.85;;;25.20;98.20;;;;;;10113326;28;20029;-60
2023/06/22 01:00:07;;;;;;;6.60;4.75;;;25.10;98.50;;;;;;10127618;28;20025;-60
2023/06/22 01:04:58;;;;;;;7.60;4.35;;;25.10;98.80;;;;;;10131697;28;20451;-62
2023/06/22 01:10:09;;;;;;;8.65;4.43;;;25.10;98.90;;;;;;10108819;28;20120;-60
2023/06/22 01:15:14;;;;;;;7.22;4.80;;;25.00;99.10;;;;;;10133943;28;20075;-59
2023/06/22 01:20:08;;;;;;;8.48;4.63;;;25.20;99.20;;;;;;10090560;28;20037;-59
2023/06/22 01:25:10;;;;;;;7.22;4.50;;;25.30;99.00;;;;;;10115027;28;20351;-66
2023/06/22 01:30:04;;;;;;;6.80;4.85;;;25.30;99.10;;;;;;10122467;28;20044;-61
2023/06/22 01:34:54;;;;;;;8.18;3.85;;;25.20;99.40;;;;;;10116613;28;20041;-60
2023/06/22 01:39:46;;;;;;;6.80;4.40;;;25.20;99.60;;;;;;10124797;28;20089;-62
2023/06/22 01:44:37;;;;;;;6.85;4.78;;;25.20;99.60;;;;;;10106743;28;20051;-60
2023/06/22 01:49:28;;;;;;;6.55;4.43;;;25.00;99.90;;;;;;10123259;28;20460;-61
2023/06/22 01:54:18;;;;;;;6.80;4.47;;;24.80;99.90;;;;;;10123948;28;20039;-61
2023/06/22 01:59:28;;;;;;;8.05;5.25;;;24.80;99.90;;;;;;10133212;28;20486;-60
2023/06/22 02:04:43;;;;;;;6.25;4.10;;;24.80;99.90;;;;;;10126007;28;20028;-62
2023/06/22 02:09:37;;;;;;;5.22;3.97;;;24.80;99.90;;;;;;10114057;28;20032;-63
2023/06/22 02:14:28;;;;;;;5.30;4.23;;;24.80;99.90;;;;;;10141768;28;20044;-63
2023/06/22 02:19:24;;;;;;;6.60;3.97;;;24.80;99.90;;;;;;10125437;28;20263;-61
2023/06/22 02:24:15;;;;;;;6.55;4.35;;;24.80;99.90;;;;;;10127719;28;20406;-63
2023/06/22 02:29:05;;;;;;;6.35;3.70;;;24.80;99.90;;;;;;10139606;28;20044;-68
2023/06/22 02:33:58;;;;;;;6.72;4.28;;;24.70;99.90;;;;;;10133447;28;20044;-67
2023/06/22 02:38:48;;;;;;;9.40;4.18;;;24.70;99.90;;;;;;10132950;28;20032;-67
2023/06/22 02:43:39;;;;;;;5.97;4.85;;;24.60;99.90;;;;;;10132342;28;20406;-66
2023/06/22 02:48:31;;;;;;;6.45;4.15;;;24.60;99.90;;;;;;10141072;28;20127;-63
2023/06/22 02:53:21;;;;;;;8.20;4.70;;;24.60;99.90;;;;;;10115642;28;20084;-65
2023/06/22 02:58:12;;;;;;;7.55;4.30;;;24.50;99.90;;;;;;10131129;28;20036;-65
2023/06/22 03:03:03;;;;;;;8.57;4.70;;;24.50;99.90;;;;;;10123700;28;20510;-67
2023/06/22 03:07:53;;;;;;;7.88;4.72;;;24.30;99.90;;;;;;10129374;28;20528;-66
2023/06/22 03:12:44;;;;;;;8.25;5.43;;;24.40;99.90;;;;;;10122659;28;20035;-67
2023/06/22 03:17:36;;;;;;;7.82;5.30;;;24.30;99.90;;;;;;10130410;28;20044;-67
2023/06/22 03:22:27;;;;;;;7.43;4.57;;;24.30;99.90;;;;;;10131191;28;20071;-66
2023/06/22 03:27:18;;;;;;;9.95;4.97;;;24.30;99.90;;;;;;10129172;28;20048;-64
2023/06/22 03:32:09;;;;;;;9.00;4.85;;;24.00;99.90;;;;;;10116902;28;20044;-67
2023/06/22 03:36:59;;;;;;;7.35;4.57;;;24.20;99.90;;;;;;10128242;28;20082;-65
2023/06/22 03:41:50;;;;;;;7.07;5.03;;;24.20;99.90;;;;;;10135981;28;20119;-65
2023/06/22 03:46:41;;;;;;;7.25;4.53;;;24.10;99.90;;;;;;10134268;28;20028;-64
2023/06/22 03:51:32;;;;;;;9.07;4.65;;;24.00;99.90;;;;;;10128386;28;20048;-64
2023/06/22 03:56:23;;;;;;;6.50;4.15;;;24.10;99.90;;;;;;10114951;28;20044;-65
2023/06/22 04:01:14;;;;;;;12.98;6.90;;;24.20;99.90;;;;;;10132713;28;20024;-65
2023/06/22 04:06:05;;;;;;;8.55;5.15;;;24.10;99.90;;;;;;10128264;28;20025;-65
2023/06/22 04:10:56;;;;;;;9.23;4.80;;;24.00;99.90;;;;;;10121116;28;20111;-64
2023/06/22 04:15:47;;;;;;;8.18;4.68;;;23.80;99.90;;;;;;10136320;28;20128;-63
2023/06/22 04:20:37;;;;;;;6.28;4.25;;;23.80;99.90;;;;;;10118934;28;20021;-62
2023/06/22 04:25:28;;;;;;;11.15;5.03;;;24.00;99.90;;;;;;10115429;28;20047;-64
2023/06/22 04:30:19;;;;;;;8.82;5.20;;;23.90;99.90;;;;;;10128611;28;20049;-64
2023/06/22 04:35:10;;;;;;;10.50;5.88;;;23.80;99.90;;;;;;10125664;28;20062;-62
2023/06/22 04:40:03;;;;;;;9.93;5.53;;;23.90;99.90;;;;;;10137754;28;20483;-63
2023/06/22 04:44:54;;;;;;;9.93;4.65;;;24.00;99.90;;;;;;10135394;28;20032;-63
2023/06/22 04:49:44;;;;;;;9.00;4.97;;;23.90;99.90;;;;;;10106249;28;20034;-63
2023/06/22 04:54:36;;;;;;;7.25;4.88;;;24.00;99.90;;;;;;10132128;28;20044;-65
2023/06/22 04:59:29;;;;;;;7.88;4.25;;;23.90;99.90;;;;;;10134060;28;20187;-67
2023/06/22 05:04:22;;;;;;;8.23;4.88;;;24.00;99.90;;;;;;10133330;28;20208;-64
2023/06/22 05:09:13;;;;;;;8.55;4.70;;;24.00;99.90;;;;;;10127325;28;20055;-66
2023/06/22 05:14:03;;;;;;;9.80;5.43;;;24.10;99.90;;;;;;10124873;28;20044;-69
2023/06/22 05:18:55;;;;;;;7.18;4.22;;;24.30;99.90;;;;;;10124998;28;20025;-64
2023/06/22 05:23:46;;;;;;;9.60;5.00;;;24.40;99.90;;;;;;10132952;28;20086;-67
2023/06/22 05:28:36;;;;;;;10.60;5.03;;;24.10;99.90;;;;;;10141500;28;20497;-63
2023/06/22 05:33:27;;;;;;;8.43;4.72;;;24.10;99.90;;;;;;10161650;28;20498;-67
2023/06/22 05:38:18;;;;;;;6.88;4.43;;;24.10;99.90;;;;;;10176532;28;20020;-67
2023/06/22 05:43:08;;;;;;;10.18;4.70;;;24.30;99.90;;;;;;10176306;28;20036;-69
2023/06/22 05:47:59;;;;;;;8.93;4.75;;;24.50;99.90;;;;;;10182104;28;20077;-69
2023/06/22 05:52:50;;;;;;;13.02;5.28;;;24.60;99.90;;;;;;10175413;28;20032;-69
2023/06/22 05:57:40;;;;;;;7.22;4.80;;;24.60;99.90;;;;;;10177659;28;20075;-69
2023/06/22 06:02:31;;;;;;;11.35;5.63;;;24.50;99.90;;;;;;10182111;28;20028;-67
2023/06/22 06:07:22;;;;;;;9.75;4.50;;;24.50;99.90;;;;;;10182966;28;20029;-65
2023/06/22 06:12:13;;;;;;;9.77;5.28;;;24.40;99.90;;;;;;10154820;28;20035;-64
2023/06/22 06:17:03;;;;;;;9.38;4.70;;;24.50;99.90;;;;;;10182857;28;20402;-65
2023/06/22 06:21:54;;;;;;;7.32;4.40;;;24.70;99.90;;;;;;10180186;28;20047;-65
2023/06/22 06:26:45;;;;;;;6.90;4.53;;;24.90;99.90;;;;;;10166281;28;20055;-66
2023/06/22 06:31:36;;;;;;;13.65;4.90;;;25.00;99.90;;;;;;10139901;28;20028;-65
2023/06/22 06:36:26;;;;;;;8.23;5.50;;;24.90;99.90;;;;;;10123498;28;20044;-64
2023/06/22 06:41:17;;;;;;;7.18;4.60;;;25.40;99.90;;;;;;10122205;28;20558;-68
2023/06/22 06:46:08;;;;;;;11.63;5.38;;;25.60;99.90;;;;;;10117899;28;20053;-67
2023/06/22 06:50:58;;;;;;;13.45;7.07;;;25.50;99.90;;;;;;10111825;28;20041;-68
2023/06/22 06:55:49;;;;;;;10.77;5.97;;;25.60;99.90;;;;;;10124210;28;20118;-70
2023/06/22 07:00:40;;;;;;;9.90;5.15;;;25.70;99.90;;;;;;10125763;28;20256;-67
2023/06/22 07:05:31;;;;;;;9.80;5.22;;;25.90;99.90;;;;;;10126235;28;20486;-67
2023/06/22 07:10:21;;;;;;;11.48;6.93;;;25.90;99.90;;;;;;10118919;28;20036;-67
2023/06/22 07:15:13;;;;;;;9.35;5.55;;;25.90;99.90;;;;;;10136314;28;20043;-60
2023/06/22 07:20:11;;;;;;;8.27;5.20;;;25.80;99.90;;;;;;10130550;28;20044;-61
2023/06/22 07:25:08;;;;;;;8.20;5.07;;;25.90;99.90;;;;;;10102255;28;20516;-60
2023/06/22 07:29:59;;;;;;;7.85;4.63;;;26.10;99.90;;;;;;10155657;28;20036;-61
2023/06/22 07:34:50;;;;;;;11.38;5.20;;;26.10;99.90;;;;;;10175046;28;20036;-61
2023/06/22 07:39:42;;;;;;;11.18;4.63;;;26.30;99.90;;;;;;10171158;28;20426;-62
2023/06/22 07:44:32;;;;;;;9.32;4.95;;;26.50;99.90;;;;;;10179571;28;20019;-62
2023/06/22 07:49:23;;;;;;;8.48;4.72;;;26.70;99.90;;;;;;10179189;28;20016;-60
2023/06/22 07:54:15;;;;;;;7.03;4.72;;;26.70;99.90;;;;;;10168571;28;20393;-59
2023/06/22 07:59:06;;;;;;;8.15;4.80;;;26.70;99.90;;;;;;10178649;28;20020;-60
2023/06/22 08:03:56;;;;;;;10.75;5.45;;;26.80;99.90;;;;;;10176325;28;20029;-63
2023/06/22 08:08:48;;;;;;;9.52;4.93;;;27.10;99.90;;;;;;10176476;28;20291;-60
2023/06/22 08:13:39;;;;;;;6.63;4.78;;;27.50;99.90;;;;;;10167646;28;20081;-60
2023/06/22 08:18:30;;;;;;;9.15;4.95;;;27.60;99.90;;;;;;10168290;28;20036;-62
2023/06/22 08:23:20;;;;;;;8.63;5.35;;;27.70;99.90;;;;;;10176270;28;20089;-61
2023/06/22 08:28:12;;;;;;;9.02;5.03;;;28.00;99.90;;;;;;10144915;28;20048;-60
2023/06/22 08:33:03;;;;;;;10.23;5.40;;;28.10;99.90;;;;;;10129691;28;20112;-59
2023/06/22 08:37:56;;;;;;;9.43;6.15;;;28.10;99.90;;;;;;10132380;28;20116;-62
2023/06/22 08:42:48;;;;;;;8.35;4.88;;;28.20;99.90;;;;;;10117087;28;20031;-62
2023/06/22 08:47:39;;;;;;;9.40;5.68;;;28.20;99.90;;;;;;10123662;28;20107;-64
2023/06/22 08:52:30;;;;;;;11.77;6.35;;;28.20;99.90;;;;;;10130218;28;20029;-63
2023/06/22 08:57:21;;;;;;;8.48;4.07;;;28.30;99.90;;;;;;10129332;28;20040;-61
2023/06/22 09:02:12;;;;;;;8.27;4.65;;;28.50;99.90;;;;;;10132697;28;20465;-61
2023/06/22 09:07:03;;;;;;;7.55;5.10;;;28.50;99.90;;;;;;10131881;28;20040;-62
2023/06/22 09:11:54;;;;;;;11.43;5.32;;;28.50;99.80;;;;;;10126568;28;20104;-63
2023/06/22 09:16:45;;;;;;;7.75;4.85;;;28.70;99.70;;;;;;10131652;28;20131;-64
2023/06/22 09:21:36;;;;;;;14.40;5.30;;;28.90;99.50;;;;;;10132524;28;20103;-60
2023/06/22 09:26:26;;;;;;;9.23;4.70;;;28.80;99.30;;;;;;10132578;28;20434;-61
2023/06/22 09:31:17;;;;;;;8.85;5.90;;;28.80;99.10;;;;;;10123964;28;20028;-67
2023/06/22 09:36:07;;;;;;;8.27;5.35;;;28.80;99.00;;;;;;10125908;28;20127;-64
2023/06/22 09:40:58;;;;;;;11.65;5.22;;;28.80;98.90;;;;;;10141216;28;20226;-63
2023/06/22 09:45:49;;;;;;;12.07;5.55;;;28.70;98.80;;;;;;10131392;28;20040;-61
2023/06/22 09:50:39;;;;;;;8.05;5.10;;;28.90;98.60;;;;;;10135664;28;20056;-62
2023/06/22 09:55:30;;;;;;;8.43;4.57;;;29.20;98.30;;;;;;10119288;28;20464;-62
2023/06/22 10:00:21;;;;;;;7.68;4.45;;;29.20;98.40;;;;;;10119686;28;20093;-64
2023/06/22 10:05:12;;;;;;;12.35;5.30;;;29.20;98.10;;;;;;10137659;28;20064;-62
2023/06/22 10:10:03;;;;;;;9.90;5.70;;;29.30;98.00;;;;;;10136030;28;20036;-63
2023/06/22 10:14:53;;;;;;;10.38;5.35;;;29.50;97.70;;;;;;10109611;28;20506;-64
2023/06/22 10:19:44;;;;;;;9.05;5.25;;;29.70;97.60;;;;;;10124666;28;20021;-63
2023/06/22 10:24:35;;;;;;;10.05;5.20;;;30.00;97.20;;;;;;10123494;28;20394;-61
2023/06/22 10:29:25;;;;;;;10.18;5.28;;;29.90;97.20;;;;;;10138813;28;20102;-61
2023/06/22 10:34:16;;;;;;;8.68;5.47;;;29.90;97.00;;;;;;10132674;28;20044;-62
2023/06/22 10:39:07;;;;;;;10.30;4.40;;;30.00;96.90;;;;;;10119668;28;20025;-62
2023/06/22 10:43:57;;;;;;;9.52;5.20;;;30.20;96.50;;;;;;10116702;28;20029;-61
2023/06/22 10:48:48;;;;;;;10.73;4.80;;;30.40;96.40;;;;;;10141241;28;20025;-64
2023/06/22 10:53:39;;;;;;;13.13;5.47;;;30.60;96.20;;;;;;10137430;28;20113;-61
2023/06/22 10:58:30;;;;;;;10.90;4.40;;;30.80;95.90;;;;;;10134016;28;20111;-62
2023/06/22 11:03:20;;;;;;;12.15;5.57;;;30.70;95.90;;;;;;10132017;28;20017;-61
2023/06/22 11:08:11;;;;;;;8.68;5.22;;;30.80;95.70;;;;;;10131714;28;20463;-63
2023/06/22 11:13:04;;;;;;;8.60;5.57;;;30.90;95.50;;;;;;10134708;28;20513;-63
2023/06/22 11:17:54;;;;;;;8.33;4.97;;;30.70;95.40;;;;;;10134426;28;20036;-63
2023/06/22 11:22:45;;;;;;;8.98;5.50;;;30.70;95.10;;;;;;10135140;28;20028;-63
2023/06/22 11:27:35;;;;;;;6.65;4.80;;;30.80;95.10;;;;;;10136663;28;20057;-65
2023/06/22 11:32:26;;;;;;;11.07;5.38;;;31.10;94.70;;;;;;10133698;28;20324;-62
2023/06/22 11:37:17;;;;;;;10.15;5.32;;;31.10;94.50;;;;;;10132481;28;20093;-64
2023/06/22 11:42:08;;;;;;;10.02;5.25;;;31.10;94.40;;;;;;10112439;28;20035;-63
2023/06/22 11:47:00;;;;;;;15.43;6.85;;;31.20;94.30;;;;;;10138249;28;20028;-63
2023/06/22 11:51:51;;;;;;;8.20;4.93;;;31.20;94.20;;;;;;10127622;28;20027;-63
2023/06/22 11:56:41;;;;;;;9.38;5.65;;;31.10;94.30;;;;;;10130583;28;20040;-63
2023/06/22 12:01:33;;;;;;;9.27;5.75;;;30.80;94.40;;;;;;10136059;28;20020;-62
2023/06/22 12:06:23;;;;;;;9.63;6.25;;;30.80;94.30;;;;;;10137092;28;20033;-63
2023/06/22 12:11:14;;;;;;;9.75;4.93;;;31.00;94.20;;;;;;10138704;28;20025;-63
2023/06/22 12:16:05;;;;;;;13.35;5.32;;;31.30;94.00;;;;;;10137185;28;20032;-64
2023/06/22 12:20:55;;;;;;;9.60;5.00;;;31.60;94.10;;;;;;10123354;28;20166;-63
2023/06/22 12:25:46;;;;;;;10.65;4.60;;;31.60;94.00;;;;;;10137079;28;20032;-64
2023/06/22 12:30:36;;;;;;;12.55;5.72;;;31.60;93.90;;;;;;10111041;28;20107;-63
2023/06/22 12:35:27;;;;;;;9.93;5.70;;;32.10;93.70;;;;;;10132768;28;20076;-63
2023/06/22 12:40:18;;;;;;;13.10;6.22;;;31.90;93.50;;;;;;10132051;28;20035;-61
2023/06/22 12:45:09;;;;;;;12.00;5.68;;;31.30;93.60;;;;;;10131616;28;20036;-60
2023/06/22 12:50:00;;;;;;;8.07;5.28;;;31.90;93.50;;;;;;10137049;28;20171;-60
2023/06/22 12:54:52;;;;;;;9.18;5.88;;;32.40;93.00;;;;;;10116582;28;20704;-62
2023/06/22 12:59:42;;;;;;;11.85;4.90;;;32.40;92.90;;;;;;10129347;28;20075;-63
2023/06/22 13:04:33;;;;;;;8.85;5.30;;;34.00;92.40;;;;;;10132584;28;20112;-60
2023/06/22 13:09:24;;;;;;;7.95;5.45;;;34.50;91.80;;;;;;10130771;28;20028;-61
2023/06/22 13:14:16;;;;;;;9.83;6.10;;;35.90;91.20;;;;;;10124302;28;20552;-62
2023/06/22 13:19:06;;;;;;;10.23;5.85;;;35.00;90.90;;;;;;10130731;28;20128;-61
2023/06/22 13:23:57;;;;;;;7.72;4.47;;;32.80;91.90;;;;;;10112630;28;20250;-62
2023/06/22 13:28:48;;;;;;;11.75;5.53;;;32.00;92.10;;;;;;10116923;28;20536;-64
2023/06/22 13:33:40;;;;;;;8.43;5.45;;;33.90;91.40;;;;;;10103486;28;20029;-63
2023/06/22 13:38:32;;;;;;;10.85;5.18;;;34.90;90.30;;;;;;10132743;28;20033;-62
2023/06/22 13:43:23;;;;;;;8.85;5.22;;;34.90;90.20;;;;;;10122105;28;20190;-63
2023/06/22 13:48:13;;;;;;;10.33;4.57;;;35.20;90.00;;;;;;10133870;28;20123;-63
2023/06/22 13:53:04;;;;;;;10.03;4.37;;;36.80;87.70;;;;;;10130572;28;20107;-63
2023/06/22 13:57:54;;;;;;;12.17;5.33;;;37.40;86.20;;;;;;10118368;28;20040;-64
2023/06/22 14:02:45;;;;;;;12.90;4.97;;;35.80;87.20;;;;;;10112414;28;20533;-62
2023/06/22 14:07:37;;;;;;;8.27;4.70;;;35.90;87.00;;;;;;10131917;28;20024;-62
2023/06/22 14:12:27;;;;;;;7.22;4.93;;;36.90;84.50;;;;;;10135147;28;20506;-63
2023/06/22 14:17:23;;;;;;;10.25;4.25;;;36.00;84.60;;;;;;10131139;28;20055;-62
2023/06/22 14:22:14;;;;;;;6.38;4.40;;;35.80;84.50;;;;;;10111405;28;20037;-62
2023/06/22 14:27:07;;;;;;;9.63;5.10;;;35.50;84.10;;;;;;10117978;28;20053;-62
2023/06/22 14:31:58;;;;;;;5.25;4.15;;;36.70;81.80;;;;;;10132513;28;20490;-64
2023/06/22 14:36:49;;;;;;;10.05;4.03;;;36.30;81.70;;;;;;10121129;28;20037;-63
2023/06/22 14:41:40;;;;;;;5.53;3.57;;;37.60;79.50;;;;;;10130658;28;20028;-62
2023/06/22 14:46:30;;;;;;;11.37;4.87;;;37.70;78.90;;;;;;10140534;28;20558;-61
2023/06/22 14:51:21;;;;;;;8.77;5.00;;;38.10;78.20;;;;;;10129661;28;20199;-62
2023/06/22 14:56:12;;;;;;;;;;;39.40;76.70;;;;;;10130499;28;20295;-63
2023/06/22 15:01:03;;;;;;;;;;;39.90;74.70;;;;;;10139272;28;19920;-63
2023/06/22 15:05:54;;;;;;;7.97;4.07;;;40.10;74.70;;;;;;10139512;28;19958;-65
2023/06/22 15:10:45;;;;;;;8.30;4.15;;;40.20;74.80;;;;;;10134960;28;20108;-65
2023/06/22 15:15:36;;;;;;;11.65;5.28;;;39.10;74.20;;;;;;10133637;28;20118;-63
2023/06/22 15:20:26;;;;;;;7.47;3.33;;;38.20;73.50;;;;;;10135461;28;20029;-64
2023/06/22 15:25:17;;;;;;;10.55;4.43;;;36.30;74.90;;;;;;10132033;28;20553;-65
2023/06/22 15:30:08;;;;;;;9.02;4.10;;;35.10;75.90;;;;;;10138923;28;20410;-64
2023/06/22 15:34:59;;;;;;;10.20;4.03;;;35.00;75.60;;;;;;10130952;28;20040;-64
2023/06/22 15:39:50;;;;;;;7.95;4.78;;;34.30;76.20;;;;;;10122581;28;20021;-64
2023/06/22 15:44:41;;;;;;;11.82;4.45;;;33.90;76.60;;;;;;10138838;28;20036;-63
2023/06/22 15:49:31;;;;;;;8.68;4.55;;;36.50;74.10;;;;;;10136375;28;20402;-62
2023/06/22 15:54:22;;;;;;;10.00;3.90;;;38.70;71.60;;;;;;10136899;28;20044;-64
2023/06/22 15:59:12;;;;;;;11.10;3.43;;;39.20;70.10;;;;;;10128578;28;20056;-64
2023/06/22 16:04:03;;;;;;;8.00;3.45;;;40.20;68.70;;;;;;10137321;28;20465;-64
2023/06/22 16:08:57;;;;;;;8.27;3.30;;;40.10;67.30;;;;;;10139336;28;20117;-63
2023/06/22 16:13:47;;;;;;;13.95;3.92;;;38.90;67.60;;;;;;10116854;28;20090;-64
2023/06/22 16:18:40;;;;;;;7.72;3.40;;;37.70;68.00;;;;;;10138090;28;20105;-62
2023/06/22 16:23:30;;;;;;;8.23;3.40;;;36.60;69.10;;;;;;10135278;28;20021;-62
2023/06/22 16:28:22;;;;;;;7.07;3.83;;;35.50;69.80;;;;;;10137193;28;20068;-63
2023/06/22 16:33:13;;;;;;;9.25;3.65;;;35.20;70.10;;;;;;10126361;28;20031;-62
2023/06/22 16:38:03;;;;;;;6.10;3.50;;;35.00;70.60;;;;;;10122737;28;20127;-63
2023/06/22 16:42:54;;;;;;;11.13;4.00;;;34.70;70.60;;;;;;10139062;28;20402;-61
2023/06/22 16:47:47;;;;;;;9.02;4.15;;;34.40;71.40;;;;;;10129806;28;20028;-64
2023/06/22 16:52:38;;;;;;;9.13;3.80;;;33.70;72.40;;;;;;10136851;28;20124;-62
2023/06/22 16:57:28;;;;;;;6.50;3.92;;;33.20;73.20;;;;;;10130971;28;20475;-63
2023/06/22 17:02:23;;;;;;;15.65;4.00;;;32.90;73.60;;;;;;10129347;28;20024;-63
2023/06/22 17:07:19;;;;;;;9.52;4.53;;;32.70;74.20;;;;;;10134365;28;20552;-63
2023/06/22 17:12:10;;;;;;;8.05;3.85;;;32.30;74.60;;;;;;10136278;28;20032;-63
2023/06/22 17:17:03;;;;;;;12.90;3.33;;;31.90;75.30;;;;;;10122050;28;20048;-62
2023/06/22 17:21:53;;;;;;;8.20;3.22;;;31.60;75.10;;;;;;10116024;28;20040;-64
2023/06/22 17:26:52;;;;;;;4.35;2.05;;;31.50;74.50;;;;;;10135980;28;20045;-64
2023/06/22 17:31:44;;;;;;;5.97;2.05;;;31.40;73.50;;;;;;10118432;28;20284;-63
2023/06/22 17:36:46;;;;;;;4.10;2.55;;;31.20;73.00;;;;;;10127027;28;20051;-64
2023/06/22 17:41:43;;;;;;;5.13;2.22;;;31.40;72.40;;;;;;10137590;28;20115;-64
2023/06/22 17:46:35;;;;;;;4.13;2.05;;;31.90;71.10;;;;;;10141278;28;20021;-63
2023/06/22 17:51:26;;;;;;;3.78;2.88;;;31.80;70.80;;;;;;10143571;28;20115;-64
2023/06/22 17:56:21;;;;;;;5.05;2.28;;;31.40;70.90;;;;;;10139605;28;20135;-64
2023/06/22 18:01:13;;;;;;;4.07;2.00;;;31.10;70.90;;;;;;10140333;28;20025;-63
2023/06/22 18:06:04;;;;;;;4.22;2.05;;;30.90;70.80;;;;;;10116282;28;20052;-63
2023/06/22 18:10:58;;;;;;;7.25;2.50;;;30.90;70.60;;;;;;10136531;28;20028;-64
2023/06/22 18:15:51;;;;;;;3.78;1.95;;;31.00;70.50;;;;;;10132780;28;20037;-64
2023/06/22 18:20:42;;;;;;;5.18;2.30;;;31.00;70.60;;;;;;10131700;28;20039;-63
2023/06/22 18:25:34;;;;;;;7.28;2.03;;;30.70;70.80;;;;;;10121641;28;20037;-62
2023/06/22 18:30:27;;;;;;;7.18;2.22;;;30.50;71.30;;;;;;10134434;28;20041;-65
2023/06/22 18:35:18;;;;;;;2.28;1.67;;;30.20;72.20;;;;;;10135166;28;20040;-64
2023/06/22 18:40:15;;;;;;;3.13;1.30;;;29.40;75.10;;;;;;10134484;28;20848;-66
2023/06/22 18:45:25;;;;;;;1.58;1.20;;;29.00;77.20;;;;;;10127954;28;20650;-65
2023/06/22 18:50:37;;;;;;;1.85;1.20;;;28.80;79.00;;;;;;10115223;28;20025;-65
2023/06/22 18:55:31;;;;;;;1.63;1.30;;;28.50;79.90;;;;;;10129732;28;20501;-66
2023/06/22 19:00:30;;;;;;;1.73;1.10;;;28.20;80.40;;;;;;10134044;28;20020;-64
2023/06/22 19:05:41;;;;;;;3.33;0.90;;;28.00;81.90;;;;;;10126213;28;20036;-65
2023/06/22 19:10:45;;;;;;;2.97;0.73;;;27.60;82.70;;;;;;10131087;28;20196;-64
2023/06/22 19:15:36;;;;;;;1.77;1.25;;;27.00;84.60;;;;;;10133943;28;20037;-63
2023/06/22 19:20:33;;;;;;;2.75;1.88;;;25.20;88.30;;;;;;10132517;28;20032;-63
2023/06/22 19:25:30;;;;;;;3.95;1.35;;;24.70;90.10;;;;;;10118027;28;20060;-62
2023/06/22 19:30:22;;;;;;;4.13;1.48;;;24.90;90.70;;;;;;10172071;28;20063;-63
2023/06/22 19:35:19;;;;;;;2.88;1.75;;;25.40;90.90;;;;;;10170816;28;20047;-64
2023/06/22 19:40:15;;;;;;;3.45;1.38;;;25.70;91.40;;;;;;10180907;28;20378;-63
2023/06/22 19:45:06;;;;;;;4.18;1.17;;;25.70;91.70;;;;;;10156241;28;20508;-62
2023/06/22 19:50:02;;;;;;;1.27;0.90;;;25.60;92.40;;;;;;10169165;28;20029;-65
2023/06/22 19:54:53;;;;;;;1.95;1.15;;;25.30;93.10;;;;;;10169438;28;20044;-63
2023/06/22 19:59:45;;;;;;;1.10;0.75;;;25.00;93.60;;;;;;10170444;28;20491;-63
2023/06/22 20:04:37;;;;;;;2.17;1.27;;;24.70;94.40;;;;;;10170474;28;20020;-64
2023/06/22 20:09:27;;;;;;;3.95;1.10;;;24.50;94.80;;;;;;10178881;28;20028;-63
2023/06/22 20:14:19;;;;;;;1.80;0.85;;;23.90;95.80;;;;;;10178191;28;20040;-61
2023/06/22 20:19:13;;;;;;;2.40;1.38;;;24.00;96.30;;;;;;10170954;28;20398;-61
2023/06/22 20:24:09;;;;;;;3.90;0.80;;;24.30;96.80;;;;;;10176724;28;20493;-62
2023/06/22 20:29:00;;;;;;;2.13;1.00;;;24.40;96.90;;;;;;10149910;28;20287;-63
2023/06/22 20:34:11;;;;;;;1.60;0.98;;;24.60;97.30;;;;;;10130054;28;20310;-63
2023/06/22 20:39:02;;;;;;;1.77;0.95;;;24.90;97.60;;;;;;10124323;28;20359;-62
2023/06/22 20:43:53;;;;;;;3.05;1.15;;;25.00;97.30;;;;;;10136997;28;20039;-60
2023/06/22 20:48:44;;;;;;;1.77;1.00;;;24.80;98.10;;;;;;10128884;28;20045;-61
2023/06/22 20:53:34;;;;;;;3.17;1.20;;;25.10;98.10;;;;;;10136852;28;20024;-62
2023/06/22 20:58:25;;;;;;;1.27;0.90;;;25.00;98.40;;;;;;10132956;28;20107;-62
2023/06/22 21:03:16;;;;;;;3.80;1.30;;;25.10;98.50;;;;;;10127000;28;20113;-63
2023/06/22 21:08:06;;;;;;;1.40;0.98;;;25.20;98.70;;;;;;10134764;28;20025;-62
2023/06/22 21:12:57;;;;;;;2.67;1.00;;;25.10;99.00;;;;;;10133451;28;20520;-62
2023/06/22 21:17:48;;;;;;;3.55;2.10;;;25.10;99.30;;;;;;10134216;28;20071;-62
2023/06/22 21:22:39;;;;;;;2.15;1.02;;;24.90;99.80;;;;;;10149678;28;20477;-63
2023/06/22 21:27:30;;;;;;;3.22;1.10;;;24.60;99.90;;;;;;10131978;28;20037;-63
2023/06/22 21:32:20;;;;;;;32.60;18.75;;;24.90;99.90;;;;;;10141595;28;20033;-66
2023/06/22 21:37:11;;;;;;;12.02;7.50;;;24.70;99.90;;;;;;10143090;28;20110;-64
2023/06/22 21:42:02;;;;;;;3.92;2.35;;;24.90;99.90;;;;;;10124911;28;20041;-64
2023/06/22 21:46:52;;;;;;;5.72;1.88;;;24.60;99.90;;;;;;10149792;28;20044;-64
2023/06/22 21:51:43;;;;;;;2.38;1.58;;;24.50;99.90;;;;;;10149151;28;20039;-64
2023/06/22 21:56:34;;;;;;;2.95;1.30;;;24.40;99.90;;;;;;10146882;28;20502;-66
2023/06/22 22:01:25;;;;;;;3.33;1.80;;;24.50;99.90;;;;;;10146725;28;20025;-63
2023/06/22 22:06:16;;;;;;;1.58;1.00;;;24.50;99.90;;;;;;10148658;28;20044;-62
2023/06/22 22:11:06;;;;;;;3.13;1.25;;;24.50;99.90;;;;;;10120713;28;20111;-65
2023/06/22 22:15:57;;;;;;;1.95;1.30;;;24.30;99.90;;;;;;10138256;28;20047;-63
2023/06/22 22:20:48;;;;;;;3.33;1.77;;;24.20;99.90;;;;;;10148481;28;20031;-65
2023/06/22 22:25:38;;;;;;;2.78;1.55;;;24.10;99.90;;;;;;10134233;28;20398;-65
2023/06/22 22:30:29;;;;;;;5.20;1.90;;;24.00;99.90;;;;;;10183746;28;20039;-65
2023/06/22 22:35:20;;;;;;;3.47;1.67;;;23.90;99.90;;;;;;10174706;28;20044;-66
2023/06/22 22:40:11;;;;;;;3.42;2.20;;;23.70;99.90;;;;;;10175465;28;20036;-65
2023/06/22 22:45:06;;;;;;;2.85;2.17;;;23.80;99.90;;;;;;10182149;28;20111;-66
2023/06/22 22:49:57;;;;;;;4.03;1.75;;;23.80;99.90;;;;;;10181492;28;20489;-67
2023/06/22 22:54:48;;;;;;;3.67;1.90;;;23.80;99.90;;;;;;10173851;28;20036;-66
2023/06/22 22:59:39;;;;;;;3.70;2.15;;;23.30;99.90;;;;;;10171685;28;20031;-65
2023/06/22 23:04:30;;;;;;;5.25;2.60;;;23.10;99.90;;;;;;10179852;28;20024;-66
2023/06/22 23:09:20;;;;;;;2.97;1.92;;;23.00;99.90;;;;;;10171845;28;20024;-65
2023/06/22 23:14:11;;;;;;;3.83;2.28;;;22.80;99.90;;;;;;10180832;28;20039;-66
2023/06/22 23:19:02;;;;;;;3.22;1.90;;;22.90;99.90;;;;;;10180981;28;20409;-66
2023/06/22 23:23:55;;;;;;;5.97;2.33;;;22.90;99.90;;;;;;10174763;28;20032;-65
2023/06/22 23:28:45;;;;;;;3.45;2.50;;;22.90;99.90;;;;;;10184838;28;20660;-67
2023/06/22 23:33:37;;;;;;;3.35;2.35;;;22.70;99.90;;;;;;10155252;28;20382;-66
2023/06/22 23:38:28;;;;;;;5.55;2.13;;;22.50;99.90;;;;;;10181445;28;20027;-67
2023/06/22 23:43:19;;;;;;;3.67;2.42;;;22.60;99.90;;;;;;10182874;28;20027;-65
2023/06/22 23:48:11;;;;;;;4.00;2.30;;;22.50;99.90;;;;;;10173656;28;20089;-67
2023/06/22 23:53:01;;;;;;;4.93;2.70;;;22.20;99.90;;;;;;10168372;28;20031;-67
2023/06/22 23:57:56;;;;;;;4.22;2.35;;;22.20;99.90;;;;;;10169707;28;20035;-66
